createdAt,value
2022-08-19T03:36:49.927Z,74.04
2022-08-19T03:39:53.162Z,72.60
2022-08-19T03:42:55.737Z,73.31
2022-08-19T03:46:05.522Z,73.65
2022-08-19T03:49:08.504Z,73.98
2022-08-19T03:52:11.425Z,74.23
2022-08-19T03:55:15.088Z,72.97
2022-08-19T03:58:18.033Z,73.12
2022-08-19T04:01:34.823Z,72.48
2022-08-19T04:04:40.704Z,72.19
2022-08-19T04:07:43.255Z,71.08
2022-08-19T04:10:45.991Z,72.98
2022-08-19T04:13:49.434Z,73.48
2022-08-19T04:16:53.224Z,70.83
2022-08-19T04:19:56.193Z,69.58
2022-08-19T04:22:59.054Z,70.44
2022-08-19T04:26:01.631Z,69.68
2022-08-19T04:29:12.562Z,69.24
2022-08-19T04:32:16.298Z,70.40
2022-08-19T04:35:22.048Z,70.58
2022-08-19T04:38:27.560Z,71.28
2022-08-19T04:41:48.989Z,70.92
2022-08-19T04:44:51.730Z,69.57
2022-08-19T04:48:27.163Z,68.17
2022-08-19T04:51:22.813Z,66.75
2022-08-19T04:54:37.476Z,67.54
2022-08-19T04:57:41.849Z,66.92
2022-08-19T05:00:44.970Z,66.89
2022-08-19T05:03:48.347Z,66.50
2022-08-19T05:06:52.580Z,65.81
2022-08-19T05:09:59.653Z,65.61
2022-08-19T05:13:02.490Z,65.26
2022-08-19T05:16:05.658Z,63.61
2022-08-19T05:19:27.328Z,63.66
2022-08-19T05:22:33.907Z,63.17
2022-08-19T05:25:41.088Z,61.92
2022-08-19T05:28:44.330Z,60.33
2022-08-19T05:31:50.354Z,59.62
2022-08-19T05:34:52.903Z,59.21
2022-08-19T05:37:58.932Z,59.49
2022-08-19T05:41:02.228Z,60.16
2022-08-19T05:44:10.258Z,59.33
2022-08-19T05:47:15.844Z,58.39
2022-08-19T05:50:18.965Z,57.46
2022-08-19T05:53:21.560Z,58.09
2022-08-19T05:56:24.997Z,56.36
2022-08-19T05:59:27.596Z,57.31
2022-08-19T06:02:31.828Z,56.34
2022-08-19T06:05:50.193Z,55.20
2022-08-19T06:08:54.908Z,55.74
2022-08-19T06:12:00.787Z,54.82
2022-08-19T06:15:07.625Z,55.22
2022-08-19T06:18:10.419Z,54.78
2022-08-19T06:21:12.792Z,53.20
2022-08-19T06:24:18.197Z,53.13
2022-08-19T06:27:21.549Z,53.37
2022-08-19T06:30:24.412Z,52.28
2022-08-19T06:33:27.040Z,51.65
2022-08-19T06:36:43.783Z,51.09
2022-08-19T06:39:46.417Z,52.05
2022-08-19T06:42:54.306Z,50.24
2022-08-19T06:45:57.932Z,49.21
2022-08-19T06:49:02.114Z,48.99
2022-08-19T06:52:06.452Z,49.44
2022-08-19T06:55:09.419Z,49.41
2022-08-19T06:58:12.033Z,48.22
2022-08-19T07:01:14.952Z,48.15
2022-08-19T07:04:21.088Z,47.11
2022-08-19T07:07:23.947Z,47.02
2022-08-19T07:10:26.647Z,46.50
2022-08-19T07:13:29.416Z,46.43
2022-08-19T07:16:32.048Z,46.97
2022-08-19T07:19:36.724Z,46.79
2022-08-19T07:22:39.744Z,46.03
2022-08-19T07:25:44.275Z,47.71
2022-08-19T07:28:51.564Z,46.31
2022-08-19T07:31:57.440Z,46.82
2022-08-19T07:35:04.329Z,46.98
2022-08-19T07:38:07.296Z,46.69
2022-08-19T07:41:12.785Z,45.92
2022-08-19T07:44:16.780Z,45.52
2022-08-19T07:47:49.136Z,46.11
2022-08-19T07:50:42.463Z,43.60
2022-08-19T07:53:46.356Z,43.34
2022-08-19T07:56:51.071Z,41.59
2022-08-19T07:59:55.408Z,41.51
2022-08-19T08:02:58.207Z,40.46
2022-08-19T08:06:19.751Z,41.18
2022-08-19T08:09:29.619Z,40.10
2022-08-19T08:12:42.232Z,39.54
2022-08-19T08:15:45.691Z,38.17
2022-08-19T08:18:50.541Z,38.37
2022-08-19T08:21:56.945Z,39.08
2022-08-19T08:25:04.204Z,39.17
2022-08-19T08:28:11.368Z,38.54
2022-08-19T08:31:21.105Z,37.33
2022-08-19T08:34:23.748Z,35.56
2022-08-19T08:37:26.552Z,36.36
2022-08-19T08:40:50.937Z,36.08
2022-08-19T08:43:56.378Z,36.71
2022-08-19T08:47:03.606Z,35.41
2022-08-19T08:50:13.375Z,34.06
2022-08-19T08:53:29.818Z,35.08
2022-08-19T08:56:35.414Z,34.65
2022-08-19T08:59:42.640Z,34.55
2022-08-19T09:02:50.387Z,34.53
2022-08-19T09:06:04.355Z,34.76
2022-08-19T09:09:25.769Z,33.69
2022-08-19T09:12:50.975Z,32.99
2022-08-19T09:16:02.455Z,34.08
2022-08-19T09:19:10.578Z,33.93
2022-08-19T09:22:13.360Z,32.47
2022-08-19T09:25:29.283Z,33.26
2022-08-19T09:28:32.465Z,31.90
2022-08-19T09:31:35.228Z,32.75
2022-08-19T09:34:44.032Z,32.52
2022-08-19T09:37:46.984Z,31.92
2022-08-19T09:40:51.152Z,31.41
2022-08-19T09:43:56.950Z,30.89
2022-08-19T09:47:01.256Z,30.94
2022-08-19T09:50:06.591Z,30.31
2022-08-19T09:53:09.387Z,30.05
2022-08-19T09:56:12.775Z,29.67
2022-08-19T09:59:15.663Z,30.23
2022-08-19T10:02:22.141Z,30.17
2022-08-19T10:05:43.920Z,29.74
2022-08-19T10:08:50.219Z,29.03
2022-08-19T10:11:54.908Z,29.30
2022-08-19T10:14:57.808Z,28.30
2022-08-19T10:18:00.838Z,29.98
2022-08-19T10:21:14.975Z,29.39
2022-08-19T10:24:18.572Z,28.93
2022-08-19T10:27:21.628Z,28.73
2022-08-19T10:30:24.960Z,27.89
2022-08-19T10:33:52.935Z,28.01
2022-08-19T10:36:56.682Z,27.45
2022-08-19T10:40:08.822Z,27.71
2022-08-19T10:43:12.213Z,27.81
2022-08-19T10:46:16.699Z,26.88
2022-08-19T10:49:20.262Z,27.68
2022-08-19T10:52:35.089Z,25.92
2022-08-19T10:56:00.360Z,26.51
2022-08-19T10:59:04.208Z,27.16
2022-08-19T11:02:13.911Z,27.10
2022-08-19T11:05:18.083Z,27.94
2022-08-19T11:08:23.018Z,27.44
2022-08-19T11:11:28.921Z,27.34
2022-08-19T11:14:34.191Z,25.95
2022-08-19T11:17:37.056Z,27.64
2022-08-19T11:20:40.486Z,26.47
2022-08-19T11:23:43.111Z,25.15
2022-08-19T11:26:46.004Z,25.82
2022-08-19T11:29:48.818Z,25.17
2022-08-19T11:32:51.752Z,24.95
2022-08-19T11:35:55.336Z,24.73
2022-08-19T11:38:58.257Z,24.81
2022-08-19T11:42:03.696Z,25.01
2022-08-19T11:45:07.064Z,24.68
2022-08-19T11:48:09.545Z,24.85
2022-08-19T11:51:15.975Z,22.96
2022-08-19T11:54:18.811Z,22.94
2022-08-19T11:57:21.738Z,23.49
2022-08-19T12:00:24.482Z,22.75
2022-08-19T12:03:28.599Z,22.06
2022-08-19T12:06:35.012Z,21.96
2022-08-19T12:09:42.726Z,22.90
2022-08-19T12:12:46.669Z,21.11
2022-08-19T12:15:57.726Z,19.66
2022-08-19T12:19:04.941Z,18.19
2022-08-19T12:22:08.639Z,19.24
2022-08-19T12:25:12.950Z,19.56
2022-08-19T12:28:16.503Z,20.72
2022-08-19T12:31:20.631Z,18.73
2022-08-19T12:34:23.440Z,19.75
2022-08-19T12:37:26.078Z,18.64
2022-08-19T12:40:29.048Z,16.41
2022-08-19T12:43:31.618Z,16.90
2022-08-19T12:46:34.544Z,15.67
2022-08-19T12:49:53.818Z,14.21
2022-08-19T12:52:59.118Z,13.27
2022-08-19T12:56:01.871Z,13.53
2022-08-19T12:59:05.804Z,12.70
2022-08-19T13:02:09.200Z,12.47
2022-08-19T13:05:15.107Z,12.34
2022-08-19T13:08:18.173Z,11.21
2022-08-19T13:11:24.781Z,12.73
2022-08-19T13:14:27.377Z,14.71
2022-08-19T13:17:30.235Z,14.24
2022-08-19T13:20:33.092Z,12.40
2022-08-19T13:23:36.764Z,12.15
2022-08-19T13:26:39.231Z,10.56
2022-08-19T13:30:01.887Z,10.39
2022-08-19T13:33:17.312Z,10.62
2022-08-19T13:36:20.292Z,10.65
2022-08-19T13:39:24.123Z,12.66
2022-08-19T13:42:27.798Z,12.08
2022-08-19T13:45:35.012Z,10.96
2022-08-19T13:48:37.888Z,12.29
2022-08-19T13:51:41.136Z,10.39
2022-08-19T13:54:45.218Z,10.76
2022-08-19T13:57:52.225Z,9.77
2022-08-19T14:00:55.347Z,12.09
2022-08-19T14:03:58.391Z,13.67
2022-08-19T14:07:01.065Z,12.73
2022-08-19T14:10:07.062Z,13.95
2022-08-19T14:13:10.000Z,12.71
2022-08-19T14:16:14.664Z,14.58
2022-08-19T14:19:17.390Z,16.35
2022-08-19T14:22:22.373Z,17.15
2022-08-19T14:25:28.394Z,19.88
2022-08-19T14:28:31.406Z,19.47
2022-08-19T14:31:33.981Z,19.90
2022-08-19T14:34:38.298Z,18.79
2022-08-19T14:37:45.678Z,17.48
2022-08-19T14:40:49.921Z,16.44
2022-08-19T14:43:54.400Z,17.07
2022-08-19T14:46:57.245Z,18.97
2022-08-19T14:50:00.206Z,19.36
2022-08-19T14:53:12.307Z,19.61
2022-08-19T14:56:18.863Z,21.54
2022-08-19T14:59:21.763Z,23.39
2022-08-19T15:02:34.554Z,24.84
2022-08-19T15:05:38.474Z,26.26
2022-08-19T15:08:44.048Z,26.42
2022-08-19T15:11:47.237Z,26.92
